Salter Path, North Carolina
Current Conditions -  °F | °C
As of 11:57 AM on Sunday 21 Dec 2014 (Local Time) from KNJM Reporting Station
Overcast Overcast  
Wind Chill: 43°   Ceiling: 4800
Heat Index: 46°   Visibility: NA
Dew Point: 36°   Wind: 6mph
Humidity: 68%   Direction: NA
Pressure: 30.27"   Gusts: NA
Location:  34.69°N, 76.89°W
Report Text: KNJM 211657Z AUTO VRB05KT OVC048 08/02 A3027 RMK AO2 SLP253 T00780022 $
Loading
Personal Weather Stations






























Interactive Weather Map New forecast layout! Learn more

10-Day Weather Forecast

Advertisements
Track Severe Weather on mobile